createdAt,value
2022-11-28T00:02:39.613Z,1013.563
2022-11-28T00:07:43.164Z,1013.549
2022-11-28T00:12:48.693Z,1013.536
2022-11-28T00:17:55.203Z,1013.458
2022-11-28T00:23:01.186Z,1013.363
2022-11-28T00:28:08.093Z,1013.373
2022-11-28T00:33:16.977Z,1013.183
2022-11-28T00:38:21.766Z,1013.272
2022-11-28T00:43:25.269Z,1013.117
2022-11-28T00:48:31.287Z,1013.175
2022-11-28T00:53:37.370Z,1013.218
2022-11-28T00:58:40.898Z,1013.169
2022-11-28T01:03:44.444Z,1013.138
2022-11-28T01:13:56.183Z,1012.938
2022-11-28T01:19:05.986Z,1012.855
2022-11-28T01:24:12.958Z,1012.757
2022-11-28T01:29:25.517Z,1012.839
2022-11-28T01:34:31.917Z,1012.764
2022-11-28T01:39:38.854Z,1012.637
2022-11-28T01:50:23.354Z,1012.555
2022-11-28T02:00:31.162Z,1012.404
2022-11-28T02:10:43.034Z,1012.352
2022-11-28T02:15:49.447Z,1012.322
2022-11-28T02:21:16.114Z,1012.232
2022-11-28T02:26:20.026Z,1012.18
2022-11-28T02:31:26.009Z,1012.111
2022-11-28T02:36:32.844Z,1012.172
2022-11-28T02:41:38.879Z,1012.144
2022-11-28T02:51:53.428Z,1012.009
2022-11-28T02:57:00.130Z,1011.994
2022-11-28T03:02:09.882Z,1011.934
2022-11-28T03:07:15.431Z,1011.807
2022-11-28T03:12:26.890Z,1011.734
2022-11-28T03:17:33.232Z,1011.756
2022-11-28T03:28:07.060Z,1011.734
2022-11-28T03:33:12.172Z,1011.748
2022-11-28T03:38:19.497Z,1011.67
2022-11-28T03:48:34.595Z,1011.621
2022-11-28T03:58:57.579Z,1011.568
2022-11-28T04:09:07.949Z,1011.463
2022-11-28T04:14:25.487Z,1011.454
2022-11-28T04:25:07.382Z,1011.449
2022-11-28T04:30:18.565Z,1011.316
2022-11-28T04:35:24.422Z,1011.327
2022-11-28T04:40:37.166Z,1011.167
2022-11-28T04:46:01.443Z,1011.129
2022-11-28T04:56:36.953Z,1011.108
2022-11-28T05:01:45.205Z,1011.205
2022-11-28T05:06:51.192Z,1011.13
2022-11-28T05:11:57.213Z,1011.146
2022-11-28T05:17:02.851Z,1011.124
2022-11-28T05:22:08.257Z,1011.176
2022-11-28T05:27:11.912Z,1011.025
2022-11-28T05:32:17.706Z,1011.104
2022-11-28T05:37:20.857Z,1010.971
2022-11-28T05:42:24.715Z,1011.026
2022-11-28T05:47:30.068Z,1010.98
2022-11-28T05:52:33.534Z,1010.801
2022-11-28T05:57:38.480Z,1010.766
2022-11-28T06:02:44.305Z,1010.659
2022-11-28T06:07:57.828Z,1010.678
2022-11-28T06:29:35.668Z,1010.514
2022-11-28T06:34:43.017Z,1010.403
2022-11-28T06:39:46.526Z,1010.491
2022-11-28T06:44:50.505Z,1010.564
2022-11-28T06:49:53.651Z,1010.601
2022-11-28T06:54:57.215Z,1010.603
2022-11-28T07:00:03.305Z,1010.635
2022-11-28T07:11:13.243Z,1010.469
2022-11-28T07:16:16.417Z,1010.417
2022-11-28T07:21:19.567Z,1010.571
2022-11-28T07:26:23.093Z,1010.417
2022-11-28T07:31:26.678Z,1010.507
2022-11-28T07:36:32.531Z,1010.441
2022-11-28T07:41:36.186Z,1010.221
2022-11-28T07:46:39.460Z,1010.318
2022-11-28T07:51:42.849Z,1010.302
2022-11-28T08:01:50.873Z,1010.406
2022-11-28T08:06:54.195Z,1010.27
2022-11-28T08:11:57.568Z,1010.252
2022-11-28T08:17:02.870Z,1010.218
2022-11-28T08:22:07.164Z,1010.292
2022-11-28T08:27:10.621Z,1010.095
2022-11-28T08:37:44.747Z,1010.057
2022-11-28T08:42:47.905Z,1010.079
2022-11-28T08:47:54.015Z,1010.093
2022-11-28T08:53:01.654Z,1010.1
2022-11-28T08:58:00.600Z,1010.242
2022-11-28T09:03:03.754Z,1010.193
2022-11-28T09:08:10.328Z,1010.312
2022-11-28T09:13:11.096Z,1010.243
2022-11-28T09:18:14.651Z,1010.193
2022-11-28T09:23:17.820Z,1010.277
2022-11-28T09:28:21.172Z,1010.158
2022-11-28T09:33:24.715Z,1010.16
2022-11-28T09:38:28.442Z,1009.988
2022-11-28T09:49:34.133Z,1009.901
2022-11-28T09:54:34.073Z,1009.955
2022-11-28T09:59:36.992Z,1009.789
2022-11-28T10:04:43.188Z,1009.899
2022-11-28T10:09:48.924Z,1010.027
2022-11-28T10:14:52.621Z,1010.17
2022-11-28T10:20:00.500Z,1009.99
2022-11-28T10:25:03.711Z,1009.933
2022-11-28T10:30:09.266Z,1009.922
2022-11-28T10:35:12.897Z,1009.92
2022-11-28T10:40:19.714Z,1009.804
2022-11-28T10:45:23.369Z,1009.719
2022-11-28T10:50:30.904Z,1009.719
2022-11-28T10:55:30.255Z,1009.576
2022-11-28T11:00:33.630Z,1009.59
2022-11-28T11:05:37.663Z,1009.522
2022-11-28T11:10:40.789Z,1009.529
2022-11-28T11:15:44.486Z,1009.489
2022-11-28T11:20:47.974Z,1009.555
2022-11-28T11:25:51.607Z,1009.466
2022-11-28T11:30:55.075Z,1009.481
2022-11-28T11:35:58.408Z,1009.411
2022-11-28T11:41:01.672Z,1009.559
2022-11-28T11:46:06.216Z,1009.579
2022-11-28T11:51:12.103Z,1009.504
2022-11-28T11:56:18.374Z,1009.384
2022-11-28T12:01:21.692Z,1009.279
2022-11-28T12:06:24.973Z,1009.186
2022-11-28T12:23:03.831Z,1008.958
2022-11-28T12:28:07.268Z,1008.911
2022-11-28T12:38:45.155Z,1009.088
2022-11-28T12:49:18.411Z,1009.037
2022-11-28T12:54:21.565Z,1008.959
2022-11-28T12:59:25.761Z,1008.939
2022-11-28T13:04:32.865Z,1008.874
2022-11-28T13:09:38.703Z,1008.891
2022-11-28T13:14:44.610Z,1008.799
2022-11-28T13:19:48.596Z,1008.77
2022-11-28T13:24:54.013Z,1008.769
2022-11-28T13:29:57.477Z,1008.739
2022-11-28T13:35:00.793Z,1008.775
2022-11-28T13:40:04.114Z,1008.674
2022-11-28T13:45:07.375Z,1008.757
2022-11-28T13:50:22.325Z,1008.723
2022-11-28T14:00:56.442Z,1008.722
2022-11-28T14:06:01.534Z,1008.764
2022-11-28T14:11:06.811Z,1008.638
2022-11-28T14:16:12.987Z,1008.778
2022-11-28T14:21:18.653Z,1008.717
2022-11-28T14:26:21.752Z,1008.668
2022-11-28T14:37:09.376Z,1008.667
2022-11-28T14:42:25.623Z,1008.67
2022-11-28T14:47:19.467Z,1008.707
2022-11-28T14:52:40.857Z,1008.821
2022-11-28T15:03:32.382Z,1008.748
2022-11-28T15:08:35.343Z,1008.984
2022-11-28T15:13:38.553Z,1009.055
2022-11-28T15:18:41.862Z,1009.022
2022-11-28T15:23:45.086Z,1009.071
2022-11-28T15:28:51.107Z,1009.078
2022-11-28T15:33:55.397Z,1008.919
2022-11-28T15:38:58.564Z,1008.92
2022-11-28T15:44:01.938Z,1008.992
2022-11-28T15:49:05.287Z,1009.038
2022-11-28T15:54:13.473Z,1009.032
2022-11-28T15:59:15.726Z,1008.928
2022-11-28T16:04:21.604Z,1009.075
2022-11-28T16:09:25.041Z,1009.031
2022-11-28T16:14:29.335Z,1009.094
2022-11-28T16:19:33.015Z,1009.167
2022-11-28T16:24:42.161Z,1009.24
2022-11-28T16:29:59.651Z,1009.068
2022-11-28T16:35:03.299Z,1009.117
2022-11-28T16:45:36.664Z,1009.114
2022-11-28T16:50:40.142Z,1009.183
2022-11-28T16:55:43.623Z,1009.173
2022-11-28T17:00:46.778Z,1009.232
2022-11-28T17:05:49.865Z,1009.191
2022-11-28T17:16:32.380Z,1009.25
2022-11-28T17:27:05.379Z,1009.081
2022-11-28T17:32:12.232Z,1008.855
2022-11-28T17:37:15.490Z,1009.106
2022-11-28T17:42:18.972Z,1009.161
2022-11-28T17:47:24.607Z,1009.221
2022-11-28T17:52:28.187Z,1009.168
2022-11-28T17:57:31.606Z,1009.103
2022-11-28T18:02:35.517Z,1009.164
2022-11-28T18:07:45.806Z,1009.288
2022-11-28T18:12:49.597Z,1009.21
2022-11-28T18:28:56.446Z,1009.313
2022-11-28T18:34:02.985Z,1009.163
2022-11-28T18:39:11.245Z,1009.025
2022-11-28T18:49:47.733Z,1008.975
2022-11-28T18:54:56.097Z,1008.923
2022-11-28T19:00:03.695Z,1009.035
2022-11-28T19:16:12.987Z,1009.005
2022-11-28T19:26:48.932Z,1009.098
2022-11-28T19:31:56.733Z,1009.082
2022-11-28T19:37:02.924Z,1009.194
2022-11-28T19:42:10.046Z,1009.125
2022-11-28T19:47:13.214Z,1009.166
2022-11-28T19:58:23.510Z,1009.111
2022-11-28T20:09:04.223Z,1009.174
2022-11-28T20:14:15.566Z,1009.228
2022-11-28T20:19:33.783Z,1009.211
2022-11-28T20:24:47.184Z,1009.259
2022-11-28T20:35:25.843Z,1009.279
2022-11-28T20:40:33.442Z,1009.234
2022-11-28T20:45:41.310Z,1009.163
2022-11-28T20:50:51.123Z,1009.275
2022-11-28T20:55:58.860Z,1009.179
2022-11-28T21:01:04.844Z,1009.194
2022-11-28T21:06:13.937Z,1009.205
2022-11-28T21:11:43.727Z,1009.182
2022-11-28T21:16:26.019Z,1009.148
2022-11-28T21:27:02.885Z,1009.196
2022-11-28T21:32:07.567Z,1009.197
2022-11-28T21:37:13.427Z,1009.261
2022-11-28T21:53:20.986Z,1009.28
2022-11-28T22:03:59.120Z,1009.161
2022-11-28T22:08:58.319Z,1009.066
2022-11-28T22:14:04.441Z,1009.318
2022-11-28T22:19:10.408Z,1009.226
2022-11-28T22:24:14.750Z,1009.223
2022-11-28T22:29:20.436Z,1009.335
2022-11-28T22:34:29.505Z,1009.247
2022-11-28T22:39:36.539Z,1009.196
2022-11-28T22:50:12.704Z,1009.247
2022-11-28T22:55:18.871Z,1009.225
2022-11-28T23:00:22.880Z,1009.257
2022-11-28T23:05:26.112Z,1009.271
2022-11-28T23:10:31.326Z,1009.191
2022-11-28T23:15:44.382Z,1009.227
2022-11-28T23:20:43.749Z,1009.191
2022-11-28T23:31:53.175Z,1009.263
2022-11-28T23:37:00.882Z,1009.27
2022-11-28T23:42:08.906Z,1009.196
2022-11-28T23:47:16.205Z,1009.277
2022-11-28T23:52:20.066Z,1009.22
2022-11-28T23:57:26.229Z,1009.218
